Malvina, Mississippi
Current Conditions -  °F | °C
As of 3:35 AM on Thursday 27 Nov 2014 (Local Time) from KRNV Reporting Station
Clear Clear  
Wind Chill: 33°   Ceiling: Unl
Heat Index: 40°   Visibility: 10mi
Dew Point: 32°   Wind: 12mph
Humidity: 73%   Direction: 330°NNW
Pressure: 30.34"   Gusts: NA
Location:  33.8277°N, 90.9559°W
Report Text: KRNV 270935Z AUTO 33010KT 10SM CLR 05/00 A3034 RMK AO2 T00450001
Loading
Personal Weather Stations






























Interactive Weather Map New forecast layout! Learn more

10-Day Weather Forecast

Advertisements
Track Severe Weather on mobile